sensor_id;sensor_type;location;lat;lon;timestamp;temperature;humidity
59973;DHT22;55298;-36.624;-64.282;2024-01-30T00:02:09;33.40;38.90
59973;DHT22;55298;-36.624;-64.282;2024-01-30T00:04:41;33.30;38.90
59973;DHT22;55298;-36.624;-64.282;2024-01-30T00:07:09;33.20;38.90
59973;DHT22;55298;-36.624;-64.282;2024-01-30T00:09:37;33.20;39.60
59973;DHT22;55298;-36.624;-64.282;2024-01-30T00:12:07;33.20;39.80
59973;DHT22;55298;-36.624;-64.282;2024-01-30T00:14:34;33.00;39.50
59973;DHT22;55298;-36.624;-64.282;2024-01-30T00:17:02;33.00;40.50
59973;DHT22;55298;-36.624;-64.282;2024-01-30T00:19:31;33.00;39.80
59973;DHT22;55298;-36.624;-64.282;2024-01-30T00:22:00;32.90;40.10
59973;DHT22;55298;-36.624;-64.282;2024-01-30T00:24:28;32.80;40.40
59973;DHT22;55298;-36.624;-64.282;2024-01-30T00:26:55;32.80;41.00
59973;DHT22;55298;-36.624;-64.282;2024-01-30T00:29:23;32.70;41.10
59973;DHT22;55298;-36.624;-64.282;2024-01-30T00:31:52;32.60;41.00
59973;DHT22;55298;-36.624;-64.282;2024-01-30T00:34:20;32.50;41.70
59973;DHT22;55298;-36.624;-64.282;2024-01-30T00:36:47;32.50;41.50
59973;DHT22;55298;-36.624;-64.282;2024-01-30T00:39:15;32.40;41.40
59973;DHT22;55298;-36.624;-64.282;2024-01-30T00:41:43;32.30;42.30
59973;DHT22;55298;-36.624;-64.282;2024-01-30T00:44:11;32.20;42.40
59973;DHT22;55298;-36.624;-64.282;2024-01-30T00:46:38;32.10;42.70
59973;DHT22;55298;-36.624;-64.282;2024-01-30T00:49:06;32.00;42.90
59973;DHT22;55298;-36.624;-64.282;2024-01-30T00:51:38;32.00;42.90
59973;DHT22;55298;-36.624;-64.282;2024-01-30T00:54:06;31.90;43.50
59973;DHT22;55298;-36.624;-64.282;2024-01-30T00:56:33;31.80;43.20
59973;DHT22;55298;-36.624;-64.282;2024-01-30T00:59:01;31.80;43.60
59973;DHT22;55298;-36.624;-64.282;2024-01-30T01:01:29;31.80;43.70
59973;DHT22;55298;-36.624;-64.282;2024-01-30T01:03:56;31.70;44.00
59973;DHT22;55298;-36.624;-64.282;2024-01-30T01:06:25;31.60;44.10
59973;DHT22;55298;-36.624;-64.282;2024-01-30T01:08:52;31.60;44.30
59973;DHT22;55298;-36.624;-64.282;2024-01-30T01:11:24;31.50;44.30
59973;DHT22;55298;-36.624;-64.282;2024-01-30T01:13:52;31.40;44.20
59973;DHT22;55298;-36.624;-64.282;2024-01-30T01:16:19;31.40;43.80
59973;DHT22;55298;-36.624;-64.282;2024-01-30T01:18:47;31.40;44.10
59973;DHT22;55298;-36.624;-64.282;2024-01-30T01:21:15;31.30;44.10
59973;DHT22;55298;-36.624;-64.282;2024-01-30T01:23:43;31.30;44.70
59973;DHT22;55298;-36.624;-64.282;2024-01-30T01:26:10;31.30;44.70
59973;DHT22;55298;-36.624;-64.282;2024-01-30T01:28:41;31.20;44.50
59973;DHT22;55298;-36.624;-64.282;2024-01-30T01:31:09;31.20;44.50
59973;DHT22;55298;-36.624;-64.282;2024-01-30T01:33:37;31.20;44.50
59973;DHT22;55298;-36.624;-64.282;2024-01-30T01:36:05;31.20;44.40
59973;DHT22;55298;-36.624;-64.282;2024-01-30T01:38:33;31.20;44.10
59973;DHT22;55298;-36.624;-64.282;2024-01-30T01:41:01;31.20;44.50
59973;DHT22;55298;-36.624;-64.282;2024-01-30T01:43:28;31.20;44.40
59973;DHT22;55298;-36.624;-64.282;2024-01-30T01:45:56;31.20;44.50
59973;DHT22;55298;-36.624;-64.282;2024-01-30T01:48:24;31.20;44.50
59973;DHT22;55298;-36.624;-64.282;2024-01-30T01:50:52;31.20;44.30
59973;DHT22;55298;-36.624;-64.282;2024-01-30T01:53:21;31.10;44.50
59973;DHT22;55298;-36.624;-64.282;2024-01-30T01:55:49;31.10;44.60
59973;DHT22;55298;-36.624;-64.282;2024-01-30T01:58:17;31.10;44.80
59973;DHT22;55298;-36.624;-64.282;2024-01-30T02:00:47;31.00;45.00
59973;DHT22;55298;-36.624;-64.282;2024-01-30T02:03:14;31.00;45.00
59973;DHT22;55298;-36.624;-64.282;2024-01-30T02:05:43;30.90;45.40
59973;DHT22;55298;-36.624;-64.282;2024-01-30T02:08:11;30.80;44.90
59973;DHT22;55298;-36.624;-64.282;2024-01-30T02:10:39;30.80;44.70
59973;DHT22;55298;-36.624;-64.282;2024-01-30T02:13:06;30.80;45.10
59973;DHT22;55298;-36.624;-64.282;2024-01-30T02:15:34;30.80;44.90
59973;DHT22;55298;-36.624;-64.282;2024-01-30T02:18:02;30.80;45.20
59973;DHT22;55298;-36.624;-64.282;2024-01-30T02:20:35;30.70;45.40
59973;DHT22;55298;-36.624;-64.282;2024-01-30T02:23:05;30.60;45.70
59973;DHT22;55298;-36.624;-64.282;2024-01-30T02:25:38;30.60;46.00
59973;DHT22;55298;-36.624;-64.282;2024-01-30T02:28:12;30.50;46.10
59973;DHT22;55298;-36.624;-64.282;2024-01-30T02:30:43;30.40;45.90
59973;DHT22;55298;-36.624;-64.282;2024-01-30T02:33:11;30.40;46.10
59973;DHT22;55298;-36.624;-64.282;2024-01-30T02:35:39;30.30;46.50
59973;DHT22;55298;-36.624;-64.282;2024-01-30T02:38:07;30.30;46.40
59973;DHT22;55298;-36.624;-64.282;2024-01-30T02:40:35;30.30;46.70
59973;DHT22;55298;-36.624;-64.282;2024-01-30T02:43:03;30.20;46.80
59973;DHT22;55298;-36.624;-64.282;2024-01-30T02:45:31;30.20;46.50
59973;DHT22;55298;-36.624;-64.282;2024-01-30T02:47:59;30.10;46.70
59973;DHT22;55298;-36.624;-64.282;2024-01-30T02:50:26;30.10;46.70
59973;DHT22;55298;-36.624;-64.282;2024-01-30T02:52:54;30.00;46.80
59973;DHT22;55298;-36.624;-64.282;2024-01-30T02:55:22;30.00;46.80
59973;DHT22;55298;-36.624;-64.282;2024-01-30T02:57:49;30.00;47.40
59973;DHT22;55298;-36.624;-64.282;2024-01-30T03:00:17;29.90;47.60
59973;DHT22;55298;-36.624;-64.282;2024-01-30T03:02:46;29.90;47.60
59973;DHT22;55298;-36.624;-64.282;2024-01-30T03:05:13;29.80;47.40
59973;DHT22;55298;-36.624;-64.282;2024-01-30T03:07:41;29.80;48.10
59973;DHT22;55298;-36.624;-64.282;2024-01-30T03:10:11;29.80;48.30
59973;DHT22;55298;-36.624;-64.282;2024-01-30T03:12:39;29.70;48.30
59973;DHT22;55298;-36.624;-64.282;2024-01-30T03:15:06;29.70;48.50
59973;DHT22;55298;-36.624;-64.282;2024-01-30T03:17:37;29.60;49.20
59973;DHT22;55298;-36.624;-64.282;2024-01-30T03:20:05;29.60;49.00
59973;DHT22;55298;-36.624;-64.282;2024-01-30T03:22:33;29.60;49.00
59973;DHT22;55298;-36.624;-64.282;2024-01-30T03:25:01;29.60;48.80
59973;DHT22;55298;-36.624;-64.282;2024-01-30T03:27:28;29.60;49.20
59973;DHT22;55298;-36.624;-64.282;2024-01-30T03:29:56;29.50;48.90
59973;DHT22;55298;-36.624;-64.282;2024-01-30T03:32:24;29.50;49.20
59973;DHT22;55298;-36.624;-64.282;2024-01-30T03:34:51;29.50;49.20
59973;DHT22;55298;-36.624;-64.282;2024-01-30T03:37:19;29.50;49.20
59973;DHT22;55298;-36.624;-64.282;2024-01-30T03:39:47;29.40;49.50
59973;DHT22;55298;-36.624;-64.282;2024-01-30T03:42:15;29.40;49.70
59973;DHT22;55298;-36.624;-64.282;2024-01-30T03:44:43;29.40;49.80
59973;DHT22;55298;-36.624;-64.282;2024-01-30T03:47:11;29.40;49.40
59973;DHT22;55298;-36.624;-64.282;2024-01-30T03:49:39;29.30;49.70
59973;DHT22;55298;-36.624;-64.282;2024-01-30T03:52:07;29.30;50.00
59973;DHT22;55298;-36.624;-64.282;2024-01-30T03:54:35;29.30;49.80
59973;DHT22;55298;-36.624;-64.282;2024-01-30T03:57:02;29.30;49.70
59973;DHT22;55298;-36.624;-64.282;2024-01-30T03:59:30;29.20;50.10
59973;DHT22;55298;-36.624;-64.282;2024-01-30T04:01:58;29.20;50.00
59973;DHT22;55298;-36.624;-64.282;2024-01-30T04:04:25;29.20;50.10
59973;DHT22;55298;-36.624;-64.282;2024-01-30T04:06:53;29.10;50.00
59973;DHT22;55298;-36.624;-64.282;2024-01-30T04:09:21;29.10;50.30
59973;DHT22;55298;-36.624;-64.282;2024-01-30T04:11:48;29.10;50.70
59973;DHT22;55298;-36.624;-64.282;2024-01-30T04:14:16;29.00;50.70
59973;DHT22;55298;-36.624;-64.282;2024-01-30T04:16:44;29.00;50.70
59973;DHT22;55298;-36.624;-64.282;2024-01-30T04:19:12;29.00;51.10
59973;DHT22;55298;-36.624;-64.282;2024-01-30T04:21:40;29.00;50.70
59973;DHT22;55298;-36.624;-64.282;2024-01-30T04:24:07;28.90;51.40
59973;DHT22;55298;-36.624;-64.282;2024-01-30T04:26:35;28.80;51.00
59973;DHT22;55298;-36.624;-64.282;2024-01-30T04:29:03;28.80;51.60
59973;DHT22;55298;-36.624;-64.282;2024-01-30T04:31:31;28.80;51.70
59973;DHT22;55298;-36.624;-64.282;2024-01-30T04:33:58;28.70;51.80
59973;DHT22;55298;-36.624;-64.282;2024-01-30T04:36:26;28.70;51.80
59973;DHT22;55298;-36.624;-64.282;2024-01-30T04:38:54;28.60;51.50
59973;DHT22;55298;-36.624;-64.282;2024-01-30T04:41:21;28.60;51.30
59973;DHT22;55298;-36.624;-64.282;2024-01-30T04:43:49;28.60;51.70
59973;DHT22;55298;-36.624;-64.282;2024-01-30T04:46:17;28.50;51.80
59973;DHT22;55298;-36.624;-64.282;2024-01-30T04:48:44;28.50;51.80
59973;DHT22;55298;-36.624;-64.282;2024-01-30T04:51:12;28.50;52.20
59973;DHT22;55298;-36.624;-64.282;2024-01-30T04:53:40;28.50;52.40
59973;DHT22;55298;-36.624;-64.282;2024-01-30T04:56:07;28.40;52.20
59973;DHT22;55298;-36.624;-64.282;2024-01-30T04:58:35;28.40;52.60
59973;DHT22;55298;-36.624;-64.282;2024-01-30T05:01:03;28.30;52.70
59973;DHT22;55298;-36.624;-64.282;2024-01-30T05:03:34;28.30;53.20
59973;DHT22;55298;-36.624;-64.282;2024-01-30T05:06:02;28.20;53.10
59973;DHT22;55298;-36.624;-64.282;2024-01-30T05:08:29;28.20;53.20
59973;DHT22;55298;-36.624;-64.282;2024-01-30T05:10:59;28.20;53.50
59973;DHT22;55298;-36.624;-64.282;2024-01-30T05:13:27;28.10;53.90
59973;DHT22;55298;-36.624;-64.282;2024-01-30T05:15:55;28.10;54.30
59973;DHT22;55298;-36.624;-64.282;2024-01-30T05:18:22;28.00;54.80
59973;DHT22;55298;-36.624;-64.282;2024-01-30T05:20:51;28.00;55.00
59973;DHT22;55298;-36.624;-64.282;2024-01-30T05:23:19;27.90;54.60
59973;DHT22;55298;-36.624;-64.282;2024-01-30T05:25:47;27.90;55.00
59973;DHT22;55298;-36.624;-64.282;2024-01-30T05:28:15;27.90;54.80
59973;DHT22;55298;-36.624;-64.282;2024-01-30T05:30:42;27.80;55.40
59973;DHT22;55298;-36.624;-64.282;2024-01-30T05:33:10;27.80;55.50
59973;DHT22;55298;-36.624;-64.282;2024-01-30T05:35:39;27.70;56.10
59973;DHT22;55298;-36.624;-64.282;2024-01-30T05:38:06;27.70;55.50
59973;DHT22;55298;-36.624;-64.282;2024-01-30T05:40:34;27.70;56.20
59973;DHT22;55298;-36.624;-64.282;2024-01-30T05:43:02;27.60;56.10
59973;DHT22;55298;-36.624;-64.282;2024-01-30T05:45:29;27.60;56.40
59973;DHT22;55298;-36.624;-64.282;2024-01-30T05:47:57;27.50;56.70
59973;DHT22;55298;-36.624;-64.282;2024-01-30T05:50:25;27.50;56.50
59973;DHT22;55298;-36.624;-64.282;2024-01-30T05:52:54;27.50;56.80
59973;DHT22;55298;-36.624;-64.282;2024-01-30T05:55:21;27.40;56.40
59973;DHT22;55298;-36.624;-64.282;2024-01-30T05:57:49;27.40;56.40
59973;DHT22;55298;-36.624;-64.282;2024-01-30T06:00:18;27.40;56.90
59973;DHT22;55298;-36.624;-64.282;2024-01-30T06:02:45;27.30;57.50
59973;DHT22;55298;-36.624;-64.282;2024-01-30T06:05:13;27.20;57.50
59973;DHT22;55298;-36.624;-64.282;2024-01-30T06:07:41;27.20;58.00
59973;DHT22;55298;-36.624;-64.282;2024-01-30T06:10:09;27.20;58.80
59973;DHT22;55298;-36.624;-64.282;2024-01-30T06:12:37;27.20;58.30
59973;DHT22;55298;-36.624;-64.282;2024-01-30T06:15:05;27.20;58.00
59973;DHT22;55298;-36.624;-64.282;2024-01-30T06:17:33;27.20;58.10
59973;DHT22;55298;-36.624;-64.282;2024-01-30T06:20:01;27.20;58.20
59973;DHT22;55298;-36.624;-64.282;2024-01-30T06:22:29;27.10;58.00
59973;DHT22;55298;-36.624;-64.282;2024-01-30T06:24:56;27.10;58.70
59973;DHT22;55298;-36.624;-64.282;2024-01-30T06:27:24;27.00;58.20
59973;DHT22;55298;-36.624;-64.282;2024-01-30T06:29:52;27.00;58.40
59973;DHT22;55298;-36.624;-64.282;2024-01-30T06:32:19;27.00;58.90
59973;DHT22;55298;-36.624;-64.282;2024-01-30T06:34:47;26.90;58.60
59973;DHT22;55298;-36.624;-64.282;2024-01-30T06:37:15;26.90;58.60
59973;DHT22;55298;-36.624;-64.282;2024-01-30T06:39:42;26.90;58.20
59973;DHT22;55298;-36.624;-64.282;2024-01-30T06:42:13;26.90;58.90
59973;DHT22;55298;-36.624;-64.282;2024-01-30T06:44:41;26.80;59.10
59973;DHT22;55298;-36.624;-64.282;2024-01-30T06:47:09;26.70;58.30
59973;DHT22;55298;-36.624;-64.282;2024-01-30T06:49:37;26.70;59.00
59973;DHT22;55298;-36.624;-64.282;2024-01-30T06:52:07;26.60;59.40
59973;DHT22;55298;-36.624;-64.282;2024-01-30T06:54:35;26.50;60.20
59973;DHT22;55298;-36.624;-64.282;2024-01-30T06:57:03;26.40;60.00
59973;DHT22;55298;-36.624;-64.282;2024-01-30T06:59:31;26.30;60.60
59973;DHT22;55298;-36.624;-64.282;2024-01-30T07:01:59;26.30;61.30
59973;DHT22;55298;-36.624;-64.282;2024-01-30T07:04:26;26.20;61.90
59973;DHT22;55298;-36.624;-64.282;2024-01-30T07:06:54;26.10;62.20
59973;DHT22;55298;-36.624;-64.282;2024-01-30T07:09:21;26.00;61.50
59973;DHT22;55298;-36.624;-64.282;2024-01-30T07:11:49;26.00;61.70
59973;DHT22;55298;-36.624;-64.282;2024-01-30T07:14:18;26.00;62.50
59973;DHT22;55298;-36.624;-64.282;2024-01-30T07:16:45;25.80;62.30
59973;DHT22;55298;-36.624;-64.282;2024-01-30T07:19:13;25.80;63.20
59973;DHT22;55298;-36.624;-64.282;2024-01-30T07:21:42;25.80;63.00
59973;DHT22;55298;-36.624;-64.282;2024-01-30T07:24:09;25.80;63.30
59973;DHT22;55298;-36.624;-64.282;2024-01-30T07:26:37;25.70;62.90
59973;DHT22;55298;-36.624;-64.282;2024-01-30T07:29:04;25.70;63.50
59973;DHT22;55298;-36.624;-64.282;2024-01-30T07:31:32;25.60;64.20
59973;DHT22;55298;-36.624;-64.282;2024-01-30T07:34:00;25.60;65.20
59973;DHT22;55298;-36.624;-64.282;2024-01-30T07:36:27;25.60;64.30
59973;DHT22;55298;-36.624;-64.282;2024-01-30T07:38:55;25.50;65.00
59973;DHT22;55298;-36.624;-64.282;2024-01-30T07:41:23;25.50;66.20
59973;DHT22;55298;-36.624;-64.282;2024-01-30T07:43:53;25.40;65.40
59973;DHT22;55298;-36.624;-64.282;2024-01-30T07:46:20;25.30;65.20
59973;DHT22;55298;-36.624;-64.282;2024-01-30T07:48:48;25.30;66.50
59973;DHT22;55298;-36.624;-64.282;2024-01-30T07:51:16;25.30;66.40
59973;DHT22;55298;-36.624;-64.282;2024-01-30T07:53:43;25.30;66.10
59973;DHT22;55298;-36.624;-64.282;2024-01-30T07:56:11;25.20;66.00
59973;DHT22;55298;-36.624;-64.282;2024-01-30T07:58:39;25.20;66.40
59973;DHT22;55298;-36.624;-64.282;2024-01-30T08:01:07;25.10;66.80
59973;DHT22;55298;-36.624;-64.282;2024-01-30T08:03:34;25.00;67.90
59973;DHT22;55298;-36.624;-64.282;2024-01-30T08:06:04;25.00;68.50
59973;DHT22;55298;-36.624;-64.282;2024-01-30T08:08:31;24.90;68.00
59973;DHT22;55298;-36.624;-64.282;2024-01-30T08:10:59;24.90;68.30
59973;DHT22;55298;-36.624;-64.282;2024-01-30T08:13:27;24.80;68.50
59973;DHT22;55298;-36.624;-64.282;2024-01-30T08:15:54;24.70;68.10
59973;DHT22;55298;-36.624;-64.282;2024-01-30T08:18:22;24.80;68.50
59973;DHT22;55298;-36.624;-64.282;2024-01-30T08:20:50;24.70;69.60
59973;DHT22;55298;-36.624;-64.282;2024-01-30T08:23:17;24.70;70.30
59973;DHT22;55298;-36.624;-64.282;2024-01-30T08:25:45;24.60;70.00
59973;DHT22;55298;-36.624;-64.282;2024-01-30T08:28:12;24.60;70.00
59973;DHT22;55298;-36.624;-64.282;2024-01-30T08:30:40;24.50;70.00
59973;DHT22;55298;-36.624;-64.282;2024-01-30T08:33:08;24.60;70.70
59973;DHT22;55298;-36.624;-64.282;2024-01-30T08:35:35;24.40;71.60
59973;DHT22;55298;-36.624;-64.282;2024-01-30T08:38:04;24.40;73.00
59973;DHT22;55298;-36.624;-64.282;2024-01-30T08:40:31;24.40;72.40
59973;DHT22;55298;-36.624;-64.282;2024-01-30T08:42:59;24.40;72.30
59973;DHT22;55298;-36.624;-64.282;2024-01-30T08:45:27;24.50;71.80
59973;DHT22;55298;-36.624;-64.282;2024-01-30T08:47:56;24.50;72.20
59973;DHT22;55298;-36.624;-64.282;2024-01-30T08:50:24;24.50;71.30
59973;DHT22;55298;-36.624;-64.282;2024-01-30T08:52:51;24.50;72.60
59973;DHT22;55298;-36.624;-64.282;2024-01-30T08:55:19;24.50;73.10
59973;DHT22;55298;-36.624;-64.282;2024-01-30T08:57:47;24.60;71.90
59973;DHT22;55298;-36.624;-64.282;2024-01-30T09:00:15;24.60;72.30
59973;DHT22;55298;-36.624;-64.282;2024-01-30T09:02:43;24.60;72.70
59973;DHT22;55298;-36.624;-64.282;2024-01-30T09:05:10;24.60;72.50
59973;DHT22;55298;-36.624;-64.282;2024-01-30T09:07:38;24.80;72.80
59973;DHT22;55298;-36.624;-64.282;2024-01-30T09:10:06;24.70;72.70
59973;DHT22;55298;-36.624;-64.282;2024-01-30T09:12:34;24.70;72.80
59973;DHT22;55298;-36.624;-64.282;2024-01-30T09:15:01;24.70;72.10
59973;DHT22;55298;-36.624;-64.282;2024-01-30T09:17:29;24.70;71.70
59973;DHT22;55298;-36.624;-64.282;2024-01-30T09:19:57;24.70;73.00
59973;DHT22;55298;-36.624;-64.282;2024-01-30T09:22:25;24.60;73.40
59973;DHT22;55298;-36.624;-64.282;2024-01-30T09:24:53;24.70;72.90
59973;DHT22;55298;-36.624;-64.282;2024-01-30T09:27:21;24.70;73.20
59973;DHT22;55298;-36.624;-64.282;2024-01-30T09:29:48;24.70;73.60
59973;DHT22;55298;-36.624;-64.282;2024-01-30T09:32:16;24.70;73.10
59973;DHT22;55298;-36.624;-64.282;2024-01-30T09:34:44;24.70;73.50
59973;DHT22;55298;-36.624;-64.282;2024-01-30T09:37:12;24.70;72.80
59973;DHT22;55298;-36.624;-64.282;2024-01-30T09:39:42;24.80;72.70
59973;DHT22;55298;-36.624;-64.282;2024-01-30T09:42:20;24.80;73.40
59973;DHT22;55298;-36.624;-64.282;2024-01-30T09:44:54;24.80;72.90
59973;DHT22;55298;-36.624;-64.282;2024-01-30T09:47:22;24.80;72.90
59973;DHT22;55298;-36.624;-64.282;2024-01-30T09:49:51;24.80;72.70
59973;DHT22;55298;-36.624;-64.282;2024-01-30T09:52:19;24.80;72.70
59973;DHT22;55298;-36.624;-64.282;2024-01-30T09:54:49;24.90;73.30
59973;DHT22;55298;-36.624;-64.282;2024-01-30T09:57:19;24.80;72.70
59973;DHT22;55298;-36.624;-64.282;2024-01-30T09:59:47;24.80;72.80
59973;DHT22;55298;-36.624;-64.282;2024-01-30T10:02:21;24.90;73.30
59973;DHT22;55298;-36.624;-64.282;2024-01-30T10:04:50;24.90;73.10
59973;DHT22;55298;-36.624;-64.282;2024-01-30T10:07:19;24.90;73.10
59973;DHT22;55298;-36.624;-64.282;2024-01-30T10:09:47;24.90;73.40
59973;DHT22;55298;-36.624;-64.282;2024-01-30T10:12:17;24.90;73.80
59973;DHT22;55298;-36.624;-64.282;2024-01-30T10:14:44;24.90;73.90
59973;DHT22;55298;-36.624;-64.282;2024-01-30T10:17:13;24.80;73.40
59973;DHT22;55298;-36.624;-64.282;2024-01-30T10:19:41;24.80;73.80
59973;DHT22;55298;-36.624;-64.282;2024-01-30T10:22:15;24.90;73.70
59973;DHT22;55298;-36.624;-64.282;2024-01-30T10:24:46;24.90;73.70
59973;DHT22;55298;-36.624;-64.282;2024-01-30T10:27:16;24.90;73.60
59973;DHT22;55298;-36.624;-64.282;2024-01-30T10:29:48;24.90;73.70
59973;DHT22;55298;-36.624;-64.282;2024-01-30T10:32:16;24.80;73.60
59973;DHT22;55298;-36.624;-64.282;2024-01-30T10:34:44;24.90;73.90
59973;DHT22;55298;-36.624;-64.282;2024-01-30T10:37:13;24.90;73.40
59973;DHT22;55298;-36.624;-64.282;2024-01-30T10:39:45;25.10;73.30
59973;DHT22;55298;-36.624;-64.282;2024-01-30T10:42:15;25.20;73.00
59973;DHT22;55298;-36.624;-64.282;2024-01-30T10:45:06;25.20;72.50
59973;DHT22;55298;-36.624;-64.282;2024-01-30T10:47:37;25.30;72.50
59973;DHT22;55298;-36.624;-64.282;2024-01-30T10:50:05;25.50;72.00
59973;DHT22;55298;-36.624;-64.282;2024-01-30T10:52:35;26.00;70.60
59973;DHT22;55298;-36.624;-64.282;2024-01-30T10:55:04;26.70;67.80
59973;DHT22;55298;-36.624;-64.282;2024-01-30T10:57:35;27.10;65.50
59973;DHT22;55298;-36.624;-64.282;2024-01-30T11:00:10;27.10;65.00
59973;DHT22;55298;-36.624;-64.282;2024-01-30T11:02:43;27.00;65.30
59973;DHT22;55298;-36.624;-64.282;2024-01-30T11:05:11;26.80;65.10
59973;DHT22;55298;-36.624;-64.282;2024-01-30T11:07:41;26.70;65.70
59973;DHT22;55298;-36.624;-64.282;2024-01-30T11:10:11;26.80;65.80
59973;DHT22;55298;-36.624;-64.282;2024-01-30T11:12:42;26.90;65.50
59973;DHT22;55298;-36.624;-64.282;2024-01-30T11:15:14;27.10;64.10
59973;DHT22;55298;-36.624;-64.282;2024-01-30T11:17:51;28.20;61.80
59973;DHT22;55298;-36.624;-64.282;2024-01-30T11:20:27;29.50;58.20
59973;DHT22;55298;-36.624;-64.282;2024-01-30T11:22:55;30.80;54.10
59973;DHT22;55298;-36.624;-64.282;2024-01-30T11:25:25;31.70;51.70
59973;DHT22;55298;-36.624;-64.282;2024-01-30T11:27:54;32.50;49.50
59973;DHT22;55298;-36.624;-64.282;2024-01-30T11:30:31;33.00;48.00
59973;DHT22;55298;-36.624;-64.282;2024-01-30T11:33:11;33.60;46.00
59973;DHT22;55298;-36.624;-64.282;2024-01-30T11:35:42;33.80;45.80
59973;DHT22;55298;-36.624;-64.282;2024-01-30T11:38:12;34.30;44.60
59973;DHT22;55298;-36.624;-64.282;2024-01-30T11:40:45;34.40;44.00
59973;DHT22;55298;-36.624;-64.282;2024-01-30T11:43:13;34.80;42.30
59973;DHT22;55298;-36.624;-64.282;2024-01-30T11:45:41;35.20;42.10
59973;DHT22;55298;-36.624;-64.282;2024-01-30T11:48:15;35.70;40.00
59973;DHT22;55298;-36.624;-64.282;2024-01-30T11:50:43;36.00;39.40
59973;DHT22;55298;-36.624;-64.282;2024-01-30T11:53:12;36.30;39.40
59973;DHT22;55298;-36.624;-64.282;2024-01-30T11:55:40;36.30;38.40
59973;DHT22;55298;-36.624;-64.282;2024-01-30T11:58:10;36.40;37.40
59973;DHT22;55298;-36.624;-64.282;2024-01-30T12:00:38;36.50;37.20
59973;DHT22;55298;-36.624;-64.282;2024-01-30T12:03:06;36.90;37.00
59973;DHT22;55298;-36.624;-64.282;2024-01-30T12:05:37;37.60;37.30
59973;DHT22;55298;-36.624;-64.282;2024-01-30T12:08:15;38.00;37.40
59973;DHT22;55298;-36.624;-64.282;2024-01-30T12:10:43;38.30;34.50
59973;DHT22;55298;-36.624;-64.282;2024-01-30T12:13:11;38.10;35.00
59973;DHT22;55298;-36.624;-64.282;2024-01-30T12:15:40;37.90;35.00
59973;DHT22;55298;-36.624;-64.282;2024-01-30T12:18:09;38.10;35.60
59973;DHT22;55298;-36.624;-64.282;2024-01-30T12:20:37;38.50;34.80
59973;DHT22;55298;-36.624;-64.282;2024-01-30T12:23:06;38.70;34.20
59973;DHT22;55298;-36.624;-64.282;2024-01-30T12:25:42;39.20;33.90
59973;DHT22;55298;-36.624;-64.282;2024-01-30T12:28:13;39.60;33.80
59973;DHT22;55298;-36.624;-64.282;2024-01-30T12:30:42;40.00;33.40
59973;DHT22;55298;-36.624;-64.282;2024-01-30T12:33:15;40.40;32.50
59973;DHT22;55298;-36.624;-64.282;2024-01-30T12:35:47;40.60;32.10
59973;DHT22;55298;-36.624;-64.282;2024-01-30T12:38:15;40.60;31.60
59973;DHT22;55298;-36.624;-64.282;2024-01-30T12:40:43;40.00;32.30
59973;DHT22;55298;-36.624;-64.282;2024-01-30T12:43:13;40.30;32.10
59973;DHT22;55298;-36.624;-64.282;2024-01-30T12:45:42;40.40;31.60
59973;DHT22;55298;-36.624;-64.282;2024-01-30T12:48:10;40.30;32.20
59973;DHT22;55298;-36.624;-64.282;2024-01-30T12:50:42;40.50;32.20
59973;DHT22;55298;-36.624;-64.282;2024-01-30T12:53:11;40.50;32.60
59973;DHT22;55298;-36.624;-64.282;2024-01-30T12:55:42;40.50;32.10
59973;DHT22;55298;-36.624;-64.282;2024-01-30T12:58:11;40.50;32.20
59973;DHT22;55298;-36.624;-64.282;2024-01-30T13:00:39;41.00;31.80
59973;DHT22;55298;-36.624;-64.282;2024-01-30T13:03:07;41.50;31.10
59973;DHT22;55298;-36.624;-64.282;2024-01-30T13:05:35;42.00;29.50
59973;DHT22;55298;-36.624;-64.282;2024-01-30T13:08:03;42.10;29.10
59973;DHT22;55298;-36.624;-64.282;2024-01-30T13:10:31;42.40;30.00
59973;DHT22;55298;-36.624;-64.282;2024-01-30T13:12:59;42.90;28.50
59973;DHT22;55298;-36.624;-64.282;2024-01-30T13:15:27;42.90;28.40
59973;DHT22;55298;-36.624;-64.282;2024-01-30T13:17:54;43.20;29.70
59973;DHT22;55298;-36.624;-64.282;2024-01-30T13:20:22;43.70;27.90
59973;DHT22;55298;-36.624;-64.282;2024-01-30T13:22:53;43.90;28.40
59973;DHT22;55298;-36.624;-64.282;2024-01-30T13:25:37;43.90;27.20
59973;DHT22;55298;-36.624;-64.282;2024-01-30T13:28:09;43.70;28.20
59973;DHT22;55298;-36.624;-64.282;2024-01-30T13:30:36;43.60;27.80
59973;DHT22;55298;-36.624;-64.282;2024-01-30T13:33:04;43.40;27.60
59973;DHT22;55298;-36.624;-64.282;2024-01-30T13:35:32;43.60;28.10
59973;DHT22;55298;-36.624;-64.282;2024-01-30T13:38:00;43.90;27.10
59973;DHT22;55298;-36.624;-64.282;2024-01-30T13:40:31;43.80;27.40
59973;DHT22;55298;-36.624;-64.282;2024-01-30T13:42:59;43.90;27.20
59973;DHT22;55298;-36.624;-64.282;2024-01-30T13:45:31;43.90;26.90
59973;DHT22;55298;-36.624;-64.282;2024-01-30T13:48:05;44.10;27.80
59973;DHT22;55298;-36.624;-64.282;2024-01-30T13:50:35;44.00;27.00
59973;DHT22;55298;-36.624;-64.282;2024-01-30T13:53:04;44.40;26.70
59973;DHT22;55298;-36.624;-64.282;2024-01-30T13:55:32;44.80;26.90
59973;DHT22;55298;-36.624;-64.282;2024-01-30T13:58:00;45.00;26.20
59973;DHT22;55298;-36.624;-64.282;2024-01-30T14:00:28;44.50;25.40
59973;DHT22;55298;-36.624;-64.282;2024-01-30T14:02:56;44.70;26.80
59973;DHT22;55298;-36.624;-64.282;2024-01-30T14:05:26;44.60;25.60
59973;DHT22;55298;-36.624;-64.282;2024-01-30T14:07:55;44.80;25.90
59973;DHT22;55298;-36.624;-64.282;2024-01-30T14:10:24;45.10;25.70
59973;DHT22;55298;-36.624;-64.282;2024-01-30T14:12:52;45.60;25.80
59973;DHT22;55298;-36.624;-64.282;2024-01-30T14:15:20;45.40;24.50
59973;DHT22;55298;-36.624;-64.282;2024-01-30T14:17:48;45.30;25.80
59973;DHT22;55298;-36.624;-64.282;2024-01-30T14:20:16;45.30;25.10
59973;DHT22;55298;-36.624;-64.282;2024-01-30T14:22:45;45.30;25.50
59973;DHT22;55298;-36.624;-64.282;2024-01-30T14:25:13;45.20;25.40
59973;DHT22;55298;-36.624;-64.282;2024-01-30T14:27:41;45.40;25.30
59973;DHT22;55298;-36.624;-64.282;2024-01-30T14:30:13;45.50;24.80
59973;DHT22;55298;-36.624;-64.282;2024-01-30T14:32:50;45.30;25.10
59973;DHT22;55298;-36.624;-64.282;2024-01-30T14:35:18;45.30;24.70
59973;DHT22;55298;-36.624;-64.282;2024-01-30T14:37:47;45.00;24.90
59973;DHT22;55298;-36.624;-64.282;2024-01-30T14:40:15;45.30;25.10
59973;DHT22;55298;-36.624;-64.282;2024-01-30T14:42:44;45.40;24.60
59973;DHT22;55298;-36.624;-64.282;2024-01-30T14:45:13;45.30;25.10
59973;DHT22;55298;-36.624;-64.282;2024-01-30T14:47:43;45.50;24.50
59973;DHT22;55298;-36.624;-64.282;2024-01-30T14:50:11;45.50;23.90
59973;DHT22;55298;-36.624;-64.282;2024-01-30T14:52:41;45.40;24.40
59973;DHT22;55298;-36.624;-64.282;2024-01-30T14:55:12;45.20;24.00
59973;DHT22;55298;-36.624;-64.282;2024-01-30T14:57:48;45.00;24.40